sensor_id;sensor_type;location;lat;lon;timestamp;pressure;altitude;pressure_sealevel;temperature;humidity
8280;BME280;8335;42.646;23.380;2022-08-30T00:01:27;94587.63;;;20.62;86.65
8280;BME280;8335;42.646;23.380;2022-08-30T00:03:54;94595.13;;;20.65;86.66
8280;BME280;8335;42.646;23.380;2022-08-30T00:06:23;94597.03;;;20.63;87.02
8280;BME280;8335;42.646;23.380;2022-08-30T00:08:51;94583.56;;;20.59;87.43
8280;BME280;8335;42.646;23.380;2022-08-30T00:11:20;94590.22;;;20.62;87.98
8280;BME280;8335;42.646;23.380;2022-08-30T00:13:49;94584.09;;;20.53;88.21
8280;BME280;8335;42.646;23.380;2022-08-30T00:16:18;94586.13;;;20.50;88.28
8280;BME280;8335;42.646;23.380;2022-08-30T00:18:46;94578.09;;;20.43;88.32
8280;BME280;8335;42.646;23.380;2022-08-30T00:21:13;94583.97;;;20.45;87.83
8280;BME280;8335;42.646;23.380;2022-08-30T00:23:40;94585.47;;;20.48;87.16
8280;BME280;8335;42.646;23.380;2022-08-30T00:26:07;94584.25;;;20.52;86.82
8280;BME280;8335;42.646;23.380;2022-08-30T00:28:34;94587.50;;;20.54;86.39
8280;BME280;8335;42.646;23.380;2022-08-30T00:31:03;94581.09;;;20.48;86.09
8280;BME280;8335;42.646;23.380;2022-08-30T00:33:31;94590.63;;;20.48;86.41
8280;BME280;8335;42.646;23.380;2022-08-30T00:36:00;94581.22;;;20.37;86.98
8280;BME280;8335;42.646;23.380;2022-08-30T00:38:27;94582.19;;;20.36;87.34
8280;BME280;8335;42.646;23.380;2022-08-30T00:40:54;94588.00;;;20.28;87.81
8280;BME280;8335;42.646;23.380;2022-08-30T00:43:24;94594.28;;;20.16;88.32
8280;BME280;8335;42.646;23.380;2022-08-30T00:45:51;94588.97;;;20.18;88.74
8280;BME280;8335;42.646;23.380;2022-08-30T00:48:19;94594.28;;;20.16;89.09
8280;BME280;8335;42.646;23.380;2022-08-30T00:50:48;94592.91;;;20.12;89.80
8280;BME280;8335;42.646;23.380;2022-08-30T00:53:19;94608.56;;;20.11;90.08
8280;BME280;8335;42.646;23.380;2022-08-30T00:55:47;94598.06;;;20.12;90.35
8280;BME280;8335;42.646;23.380;2022-08-30T00:58:17;94591.00;;;20.14;90.71
8280;BME280;8335;42.646;23.380;2022-08-30T01:00:48;94586.25;;;20.10;91.35
8280;BME280;8335;42.646;23.380;2022-08-30T01:03:15;94594.53;;;20.03;91.91
8280;BME280;8335;42.646;23.380;2022-08-30T01:05:44;94593.03;;;20.01;92.18
8280;BME280;8335;42.646;23.380;2022-08-30T01:08:11;94586.09;;;20.01;92.42
8280;BME280;8335;42.646;23.380;2022-08-30T01:10:40;94581.91;;;20.00;92.51
8280;BME280;8335;42.646;23.380;2022-08-30T01:13:09;94577.25;;;20.04;92.89
8280;BME280;8335;42.646;23.380;2022-08-30T01:15:38;94577.25;;;20.04;93.13
8280;BME280;8335;42.646;23.380;2022-08-30T01:18:05;94584.06;;;20.05;93.03
8280;BME280;8335;42.646;23.380;2022-08-30T01:20:36;94578.22;;;20.03;93.83
8280;BME280;8335;42.646;23.380;2022-08-30T01:23:09;94587.59;;;20.04;94.48
8280;BME280;8335;42.646;23.380;2022-08-30T01:25:38;94580.94;;;20.01;94.79
8280;BME280;8335;42.646;23.380;2022-08-30T01:28:09;94575.47;;;19.95;95.10
8280;BME280;8335;42.646;23.380;2022-08-30T01:30:37;94572.09;;;19.94;95.17
8280;BME280;8335;42.646;23.380;2022-08-30T01:33:05;94567.03;;;19.83;95.84
8280;BME280;8335;42.646;23.380;2022-08-30T01:35:34;94569.47;;;19.85;97.04
8280;BME280;8335;42.646;23.380;2022-08-30T01:38:03;94574.06;;;19.71;97.88
8280;BME280;8335;42.646;23.380;2022-08-30T01:40:32;94581.94;;;19.70;98.09
8280;BME280;8335;42.646;23.380;2022-08-30T01:42:58;94579.78;;;19.65;98.56
8280;BME280;8335;42.646;23.380;2022-08-30T01:45:25;94578.00;;;19.66;98.81
8280;BME280;8335;42.646;23.380;2022-08-30T01:47:52;94580.31;;;19.69;99.02
8280;BME280;8335;42.646;23.380;2022-08-30T01:50:19;94579.22;;;19.71;99.16
8280;BME280;8335;42.646;23.380;2022-08-30T01:52:45;94563.03;;;19.69;99.14
8280;BME280;8335;42.646;23.380;2022-08-30T01:55:12;94566.44;;;19.70;99.03
8280;BME280;8335;42.646;23.380;2022-08-30T01:57:40;94568.88;;;19.71;98.57
8280;BME280;8335;42.646;23.380;2022-08-30T02:00:09;94565.63;;;19.69;98.27
8280;BME280;8335;42.646;23.380;2022-08-30T02:02:36;94573.94;;;19.73;98.26
8280;BME280;8335;42.646;23.380;2022-08-30T02:05:04;94569.97;;;19.69;98.24
8280;BME280;8335;42.646;23.380;2022-08-30T02:07:31;94562.50;;;19.66;98.27
8280;BME280;8335;42.646;23.380;2022-08-30T02:10:00;94561.69;;;19.65;98.56
8280;BME280;8335;42.646;23.380;2022-08-30T02:12:26;94561.13;;;19.62;98.22
8280;BME280;8335;42.646;23.380;2022-08-30T02:14:56;94565.47;;;19.61;97.98
8280;BME280;8335;42.646;23.380;2022-08-30T02:17:22;94562.22;;;19.59;98.48
8280;BME280;8335;42.646;23.380;2022-08-30T02:19:49;94552.38;;;19.53;98.67
8280;BME280;8335;42.646;23.380;2022-08-30T02:22:16;94554.97;;;19.53;96.71
8280;BME280;8335;42.646;23.380;2022-08-30T02:24:45;94539.84;;;19.39;95.46
8280;BME280;8335;42.646;23.380;2022-08-30T02:27:12;94555.47;;;19.47;94.75
8280;BME280;8335;42.646;23.380;2022-08-30T02:29:38;94545.53;;;19.42;94.67
8280;BME280;8335;42.646;23.380;2022-08-30T02:32:07;94561.03;;;19.42;94.80
8280;BME280;8335;42.646;23.380;2022-08-30T02:34:34;94550.97;;;19.39;95.19
8280;BME280;8335;42.646;23.380;2022-08-30T02:37:00;94551.78;;;19.40;94.55
8280;BME280;8335;42.646;23.380;2022-08-30T02:39:27;94556.69;;;19.43;94.17
8280;BME280;8335;42.646;23.380;2022-08-30T02:41:54;94557.78;;;19.40;93.82
8280;BME280;8335;42.646;23.380;2022-08-30T02:44:21;94548.66;;;19.36;93.34
8280;BME280;8335;42.646;23.380;2022-08-30T02:46:47;94548.25;;;19.31;93.61
8280;BME280;8335;42.646;23.380;2022-08-30T02:49:15;94544.25;;;19.27;93.77
8280;BME280;8335;42.646;23.380;2022-08-30T02:51:42;94543.59;;;19.25;93.83
8280;BME280;8335;42.646;23.380;2022-08-30T02:54:09;94540.34;;;19.23;93.76
8280;BME280;8335;42.646;23.380;2022-08-30T02:56:40;94533.91;;;19.17;93.96
8280;BME280;8335;42.646;23.380;2022-08-30T02:59:07;94540.16;;;19.15;94.03
8280;BME280;8335;42.646;23.380;2022-08-30T03:01:34;94539.81;;;18.98;95.12
8280;BME280;8335;42.646;23.380;2022-08-30T03:04:03;94549.94;;;18.90;95.27
8280;BME280;8335;42.646;23.380;2022-08-30T03:06:31;94546.94;;;18.85;95.99
8280;BME280;8335;42.646;23.380;2022-08-30T03:08:58;94557.78;;;18.79;96.23
8280;BME280;8335;42.646;23.380;2022-08-30T03:11:25;94553.81;;;18.75;96.23
8280;BME280;8335;42.646;23.380;2022-08-30T03:13:52;94547.16;;;18.73;96.55
8280;BME280;8335;42.646;23.380;2022-08-30T03:16:18;94545.63;;;18.70;96.97
8280;BME280;8335;42.646;23.380;2022-08-30T03:18:46;94551.53;;;18.82;96.46
8280;BME280;8335;42.646;23.380;2022-08-30T03:21:14;94551.28;;;18.85;95.74
8280;BME280;8335;42.646;23.380;2022-08-30T03:23:43;94552.53;;;18.90;95.32
8280;BME280;8335;42.646;23.380;2022-08-30T03:26:10;94555.94;;;18.91;94.91
8280;BME280;8335;42.646;23.380;2022-08-30T03:28:39;94560.72;;;18.95;94.74
8280;BME280;8335;42.646;23.380;2022-08-30T03:31:06;94559.09;;;18.94;95.00
8280;BME280;8335;42.646;23.380;2022-08-30T03:33:34;94558.81;;;18.97;95.00
8280;BME280;8335;42.646;23.380;2022-08-30T03:36:01;94556.09;;;18.99;94.90
8280;BME280;8335;42.646;23.380;2022-08-30T03:38:28;94556.91;;;19.00;95.62
8280;BME280;8335;42.646;23.380;2022-08-30T03:40:56;94549.00;;;18.91;96.29
8280;BME280;8335;42.646;23.380;2022-08-30T03:43:23;94559.91;;;18.95;96.50
8280;BME280;8335;42.646;23.380;2022-08-30T03:45:50;94554.16;;;18.91;96.62
8280;BME280;8335;42.646;23.380;2022-08-30T03:48:17;94560.13;;;18.92;96.95
8280;BME280;8335;42.646;23.380;2022-08-30T03:50:43;94555.56;;;18.95;96.90
8280;BME280;8335;42.646;23.380;2022-08-30T03:53:10;94547.81;;;18.95;96.57
8280;BME280;8335;42.646;23.380;2022-08-30T03:55:37;94559.38;;;19.01;96.41
8280;BME280;8335;42.646;23.380;2022-08-30T03:58:05;94561.56;;;19.06;96.59
8280;BME280;8335;42.646;23.380;2022-08-30T04:00:32;94558.03;;;19.07;96.86
8280;BME280;8335;42.646;23.380;2022-08-30T04:02:58;94565.22;;;19.03;96.96
8280;BME280;8335;42.646;23.380;2022-08-30T04:05:25;94562.22;;;18.98;97.40
8280;BME280;8335;42.646;23.380;2022-08-30T04:07:52;94559.09;;;18.94;97.89
8280;BME280;8335;42.646;23.380;2022-08-30T04:10:20;94563.84;;;18.99;97.74
8280;BME280;8335;42.646;23.380;2022-08-30T04:12:47;94565.59;;;18.98;97.98
8280;BME280;8335;42.646;23.380;2022-08-30T04:15:17;94567.94;;;19.02;98.27
8280;BME280;8335;42.646;23.380;2022-08-30T04:17:45;94568.75;;;19.02;98.42
8280;BME280;8335;42.646;23.380;2022-08-30T04:20:12;94577.50;;;19.11;98.47
8280;BME280;8335;42.646;23.380;2022-08-30T04:22:39;94579.56;;;19.17;98.11
8280;BME280;8335;42.646;23.380;2022-08-30T04:25:07;94576.47;;;19.23;97.86
8280;BME280;8335;42.646;23.380;2022-08-30T04:27:34;94577.69;;;19.29;97.84
8280;BME280;8335;42.646;23.380;2022-08-30T04:30:02;94573.38;;;19.29;98.04
8280;BME280;8335;42.646;23.380;2022-08-30T04:32:33;94575.97;;;19.29;98.05
8280;BME280;8335;42.646;23.380;2022-08-30T04:35:00;94544.91;;;19.19;97.83
8280;BME280;8335;42.646;23.380;2022-08-30T04:37:26;94577.47;;;19.41;98.01
8280;BME280;8335;42.646;23.380;2022-08-30T04:39:54;94575.59;;;19.43;97.61
8280;BME280;8335;42.646;23.380;2022-08-30T04:42:22;94578.19;;;19.43;97.34
8280;BME280;8335;42.646;23.380;2022-08-30T04:44:48;94585.78;;;19.45;97.01
8280;BME280;8335;42.646;23.380;2022-08-30T04:47:16;94581.59;;;19.44;97.08
8280;BME280;8335;42.646;23.380;2022-08-30T04:49:45;94604.97;;;19.52;96.33
8280;BME280;8335;42.646;23.380;2022-08-30T04:52:11;94602.53;;;19.50;95.77
8280;BME280;8335;42.646;23.380;2022-08-30T04:54:38;94598.88;;;19.53;95.41
8280;BME280;8335;42.646;23.380;2022-08-30T04:57:06;94598.59;;;19.56;95.00
8280;BME280;8335;42.646;23.380;2022-08-30T04:59:32;94604.34;;;19.60;94.51
8280;BME280;8335;42.646;23.380;2022-08-30T05:01:59;94605.19;;;19.60;94.20
8280;BME280;8335;42.646;23.380;2022-08-30T05:04:26;94604.09;;;19.63;93.89
8280;BME280;8335;42.646;23.380;2022-08-30T05:06:54;94615.66;;;19.68;93.90
8280;BME280;8335;42.646;23.380;2022-08-30T05:09:21;94614.34;;;19.74;93.66
8280;BME280;8335;42.646;23.380;2022-08-30T05:11:48;94610.13;;;19.83;92.88
8280;BME280;8335;42.646;23.380;2022-08-30T05:14:15;94612.19;;;19.89;92.88
8280;BME280;8335;42.646;23.380;2022-08-30T05:16:41;94613.53;;;19.93;92.74
8280;BME280;8335;42.646;23.380;2022-08-30T05:19:08;94618.59;;;19.94;92.28
8280;BME280;8335;42.646;23.380;2022-08-30T05:21:35;94615.50;;;20.00;91.73
8280;BME280;8335;42.646;23.380;2022-08-30T05:24:06;94615.88;;;20.05;91.57
8280;BME280;8335;42.646;23.380;2022-08-30T05:26:33;94619.56;;;20.13;90.76
8280;BME280;8335;42.646;23.380;2022-08-30T05:29:03;94618.91;;;20.20;90.57
8280;BME280;8335;42.646;23.380;2022-08-30T05:31:31;94595.63;;;20.11;90.47
8280;BME280;8335;42.646;23.380;2022-08-30T05:33:59;94615.38;;;20.31;90.53
8280;BME280;8335;42.646;23.380;2022-08-30T05:36:28;94626.31;;;20.44;90.99
8280;BME280;8335;42.646;23.380;2022-08-30T05:38:55;94612.97;;;20.49;90.52
8280;BME280;8335;42.646;23.380;2022-08-30T05:41:24;94620.75;;;20.58;89.91
8280;BME280;8335;42.646;23.380;2022-08-30T05:43:52;94621.81;;;20.66;89.61
8280;BME280;8335;42.646;23.380;2022-08-30T05:46:19;94616.63;;;20.75;89.36
8280;BME280;8335;42.646;23.380;2022-08-30T05:48:46;94618.13;;;20.87;89.32
8280;BME280;8335;42.646;23.380;2022-08-30T05:51:16;94612.09;;;20.97;89.14
8280;BME280;8335;42.646;23.380;2022-08-30T05:53:44;94610.28;;;21.16;89.05
8280;BME280;8335;42.646;23.380;2022-08-30T05:56:13;94611.09;;;21.36;89.77
8280;BME280;8335;42.646;23.380;2022-08-30T05:58:41;94610.03;;;21.57;89.39
8280;BME280;8335;42.646;23.380;2022-08-30T06:01:18;94613.31;;;21.86;89.16
8280;BME280;8335;42.646;23.380;2022-08-30T06:03:45;94621.41;;;22.29;88.38
8280;BME280;8335;42.646;23.380;2022-08-30T06:06:12;94622.97;;;22.57;87.31
8280;BME280;8335;42.646;23.380;2022-08-30T06:08:40;94622.31;;;22.91;86.66
8280;BME280;8335;42.646;23.380;2022-08-30T06:11:10;94614.63;;;23.07;85.64
8280;BME280;8335;42.646;23.380;2022-08-30T06:13:37;94632.25;;;23.21;86.37
8280;BME280;8335;42.646;23.380;2022-08-30T06:16:05;94639.38;;;23.19;85.74
8280;BME280;8335;42.646;23.380;2022-08-30T06:18:32;94622.66;;;22.96;86.38
8280;BME280;8335;42.646;23.380;2022-08-30T06:21:02;94624.25;;;22.89;86.95
8280;BME280;8335;42.646;23.380;2022-08-30T06:23:29;94635.94;;;22.93;87.79
8280;BME280;8335;42.646;23.380;2022-08-30T06:25:56;94638.41;;;22.94;87.11
8280;BME280;8335;42.646;23.380;2022-08-30T06:28:23;94627.56;;;22.99;87.43
8280;BME280;8335;42.646;23.380;2022-08-30T06:30:49;94646.88;;;23.22;86.42
8280;BME280;8335;42.646;23.380;2022-08-30T06:33:18;94649.81;;;23.27;86.67
8280;BME280;8335;42.646;23.380;2022-08-30T06:35:44;94652.69;;;23.42;85.49
8280;BME280;8335;42.646;23.380;2022-08-30T06:38:11;94654.50;;;23.50;85.08
8280;BME280;8335;42.646;23.380;2022-08-30T06:40:38;94659.69;;;23.50;84.74
8280;BME280;8335;42.646;23.380;2022-08-30T06:43:04;94655.97;;;23.44;86.33
8280;BME280;8335;42.646;23.380;2022-08-30T06:45:32;94659.97;;;23.39;85.87
8280;BME280;8335;42.646;23.380;2022-08-30T06:47:59;94654.03;;;23.28;86.42
8280;BME280;8335;42.646;23.380;2022-08-30T06:50:27;94656.97;;;23.25;85.82
8280;BME280;8335;42.646;23.380;2022-08-30T06:52:56;94657.78;;;23.26;86.58
8280;BME280;8335;42.646;23.380;2022-08-30T06:55:28;94651.41;;;23.20;85.31
8280;BME280;8335;42.646;23.380;2022-08-30T06:57:57;94652.38;;;23.19;84.62
8280;BME280;8335;42.646;23.380;2022-08-30T07:00:24;94657.56;;;23.19;84.42
8280;BME280;8335;42.646;23.380;2022-08-30T07:02:51;94661.78;;;23.20;85.06
8280;BME280;8335;42.646;23.380;2022-08-30T07:05:18;94662.97;;;23.26;85.19
8280;BME280;8335;42.646;23.380;2022-08-30T07:07:48;94665.63;;;23.34;84.94
8280;BME280;8335;42.646;23.380;2022-08-30T07:10:17;94667.66;;;23.48;85.06
8280;BME280;8335;42.646;23.380;2022-08-30T07:12:46;94660.22;;;23.53;83.93
8280;BME280;8335;42.646;23.380;2022-08-30T07:15:13;94671.88;;;23.67;84.36
8280;BME280;8335;42.646;23.380;2022-08-30T07:17:40;94665.56;;;23.78;84.37
8280;BME280;8335;42.646;23.380;2022-08-30T07:20:24;94666.28;;;23.88;83.88
8280;BME280;8335;42.646;23.380;2022-08-30T07:22:52;94669.09;;;23.95;84.18
8280;BME280;8335;42.646;23.380;2022-08-30T07:25:19;94660.13;;;23.97;82.84
8280;BME280;8335;42.646;23.380;2022-08-30T07:27:46;94668.78;;;24.06;82.25
8280;BME280;8335;42.646;23.380;2022-08-30T07:30:14;94667.28;;;23.95;81.74
8280;BME280;8335;42.646;23.380;2022-08-30T07:32:41;94670.00;;;23.85;82.65
8280;BME280;8335;42.646;23.380;2022-08-30T07:35:08;94668.03;;;23.79;82.56
8280;BME280;8335;42.646;23.380;2022-08-30T07:37:35;94660.88;;;23.81;82.49
8280;BME280;8335;42.646;23.380;2022-08-30T07:40:04;94657.72;;;23.70;82.37
8280;BME280;8335;42.646;23.380;2022-08-30T07:42:31;94673.09;;;23.81;82.22
8280;BME280;8335;42.646;23.380;2022-08-30T07:44:58;94669.66;;;23.80;81.70
8280;BME280;8335;42.646;23.380;2022-08-30T07:47:27;94666.31;;;23.62;80.94
8280;BME280;8335;42.646;23.380;2022-08-30T07:49:54;94674.31;;;23.69;81.58
8280;BME280;8335;42.646;23.380;2022-08-30T07:52:20;94674.47;;;23.67;81.64
8280;BME280;8335;42.646;23.380;2022-08-30T07:54:47;94678.34;;;23.63;81.53
8280;BME280;8335;42.646;23.380;2022-08-30T07:57:15;94684.66;;;23.60;81.98
8280;BME280;8335;42.646;23.380;2022-08-30T07:59:42;94684.75;;;23.51;83.17
8280;BME280;8335;42.646;23.380;2022-08-30T08:02:09;94686.78;;;23.39;84.10
8280;BME280;8335;42.646;23.380;2022-08-30T08:04:35;94676.63;;;23.28;85.59
8280;BME280;8335;42.646;23.380;2022-08-30T08:07:02;94682.38;;;23.14;86.07
8280;BME280;8335;42.646;23.380;2022-08-30T08:09:29;94681.50;;;23.05;86.53
8280;BME280;8335;42.646;23.380;2022-08-30T08:11:56;94681.97;;;23.00;87.88
8280;BME280;8335;42.646;23.380;2022-08-30T08:14:24;94687.28;;;22.99;88.81
8280;BME280;8335;42.646;23.380;2022-08-30T08:16:52;94675.19;;;22.90;90.49
8280;BME280;8335;42.646;23.380;2022-08-30T08:19:19;94679.75;;;22.88;91.06
8280;BME280;8335;42.646;23.380;2022-08-30T08:21:46;94679.41;;;22.73;91.40
8280;BME280;8335;42.646;23.380;2022-08-30T08:24:12;94687.56;;;22.78;92.49
8280;BME280;8335;42.646;23.380;2022-08-30T08:26:40;94663.03;;;22.72;92.82
8280;BME280;8335;42.646;23.380;2022-08-30T08:29:08;94685.59;;;22.90;92.08
8280;BME280;8335;42.646;23.380;2022-08-30T08:31:36;94664.22;;;22.96;92.09
8280;BME280;8335;42.646;23.380;2022-08-30T08:34:04;94681.97;;;23.26;91.52
8280;BME280;8335;42.646;23.380;2022-08-30T08:36:31;94679.63;;;23.41;90.86
8280;BME280;8335;42.646;23.380;2022-08-30T08:38:58;94684.09;;;23.57;89.75
8280;BME280;8335;42.646;23.380;2022-08-30T08:41:38;94691.28;;;23.81;90.26
8280;BME280;8335;42.646;23.380;2022-08-30T08:44:11;94695.28;;;24.01;87.57
8280;BME280;8335;42.646;23.380;2022-08-30T08:46:48;94692.56;;;24.11;86.10
8280;BME280;8335;42.646;23.380;2022-08-30T08:49:20;94696.16;;;24.18;84.99
8280;BME280;8335;42.646;23.380;2022-08-30T08:51:47;94695.56;;;24.32;83.71
8280;BME280;8335;42.646;23.380;2022-08-30T08:54:35;94681.50;;;24.51;81.22
8280;BME280;8335;42.646;23.380;2022-08-30T08:57:04;94690.47;;;24.81;82.52
8280;BME280;8335;42.646;23.380;2022-08-30T08:59:31;94689.69;;;25.13;82.43
8280;BME280;8335;42.646;23.380;2022-08-30T09:02:01;94687.03;;;25.62;78.56
8280;BME280;8335;42.646;23.380;2022-08-30T09:04:36;94691.47;;;26.17;77.66
8280;BME280;8335;42.646;23.380;2022-08-30T09:07:08;94691.66;;;26.78;74.70
8280;BME280;8335;42.646;23.380;2022-08-30T09:09:40;94692.81;;;27.29;69.34
8280;BME280;8335;42.646;23.380;2022-08-30T09:12:10;94689.47;;;27.73;69.07
8280;BME280;8335;42.646;23.380;2022-08-30T09:14:40;94685.94;;;27.81;67.61
8280;BME280;8335;42.646;23.380;2022-08-30T09:17:10;94690.88;;;28.20;66.40
8280;BME280;8335;42.646;23.380;2022-08-30T09:19:42;94686.88;;;28.90;62.21
8280;BME280;8335;42.646;23.380;2022-08-30T09:22:23;94702.00;;;29.52;59.13
8280;BME280;8335;42.646;23.380;2022-08-30T09:24:53;94709.59;;;30.37;56.15
8280;BME280;8335;42.646;23.380;2022-08-30T09:27:24;94702.97;;;31.09;54.60
8280;BME280;8335;42.646;23.380;2022-08-30T09:29:55;94705.25;;;31.39;50.57
8280;BME280;8335;42.646;23.380;2022-08-30T09:32:25;94707.25;;;31.63;49.24
8280;BME280;8335;42.646;23.380;2022-08-30T09:34:52;94707.25;;;31.57;51.50
8280;BME280;8335;42.646;23.380;2022-08-30T09:37:25;94706.66;;;31.55;50.27
8280;BME280;8335;42.646;23.380;2022-08-30T09:39:53;94699.09;;;32.18;47.83
8280;BME280;8335;42.646;23.380;2022-08-30T09:42:21;94708.56;;;32.90;46.55
8280;BME280;8335;42.646;23.380;2022-08-30T09:44:50;94717.19;;;33.35;43.94
8280;BME280;8335;42.646;23.380;2022-08-30T09:47:19;94706.78;;;33.47;40.97
8280;BME280;8335;42.646;23.380;2022-08-30T09:49:48;94710.44;;;33.46;40.20
8280;BME280;8335;42.646;23.380;2022-08-30T09:52:21;94713.38;;;33.38;39.90
8280;BME280;8335;42.646;23.380;2022-08-30T09:55:08;94708.25;;;34.11;39.29
8280;BME280;8335;42.646;23.380;2022-08-30T09:57:45;94702.66;;;34.74;39.85
8280;BME280;8335;42.646;23.380;2022-08-30T10:00:19;94711.03;;;35.32;37.91
8280;BME280;8335;42.646;23.380;2022-08-30T10:02:56;94703.84;;;35.62;38.29
8280;BME280;8335;42.646;23.380;2022-08-30T10:05:31;94698.91;;;36.24;36.91
8280;BME280;8335;42.646;23.380;2022-08-30T10:08:07;94694.66;;;36.11;36.29
8280;BME280;8335;42.646;23.380;2022-08-30T10:10:45;94695.69;;;35.87;37.95
8280;BME280;8335;42.646;23.380;2022-08-30T10:13:31;94688.97;;;35.38;37.45
8280;BME280;8335;42.646;23.380;2022-08-30T10:16:09;94682.59;;;35.27;39.29
8280;BME280;8335;42.646;23.380;2022-08-30T10:18:44;94670.44;;;34.66;38.82
8280;BME280;8335;42.646;23.380;2022-08-30T10:21:22;94668.78;;;33.73;41.36
8280;BME280;8335;42.646;23.380;2022-08-30T10:23:55;94675.84;;;33.29;41.92
8280;BME280;8335;42.646;23.380;2022-08-30T10:26:29;94658.06;;;33.18;42.01
8280;BME280;8335;42.646;23.380;2022-08-30T10:29:00;94677.47;;;33.55;41.95
8280;BME280;8335;42.646;23.380;2022-08-30T10:31:33;94665.00;;;33.37;42.13
8280;BME280;8335;42.646;23.380;2022-08-30T10:34:07;94666.06;;;32.67;42.77
8280;BME280;8335;42.646;23.380;2022-08-30T10:36:42;94650.50;;;32.00;45.74
8280;BME280;8335;42.646;23.380;2022-08-30T10:39:14;94658.25;;;31.03;47.01
8280;BME280;8335;42.646;23.380;2022-08-30T10:41:47;94653.06;;;30.61;49.06
8280;BME280;8335;42.646;23.380;2022-08-30T10:44:25;94657.66;;;29.98;48.54
8280;BME280;8335;42.646;23.380;2022-08-30T10:47:05;94644.91;;;30.30;49.73
8280;BME280;8335;42.646;23.380;2022-08-30T10:49:37;94637.34;;;30.13;49.57
8280;BME280;8335;42.646;23.380;2022-08-30T10:52:16;94646.50;;;29.90;49.82
8280;BME280;8335;42.646;23.380;2022-08-30T10:54:48;94644.41;;;29.44;52.56
8280;BME280;8335;42.646;23.380;2022-08-30T10:57:16;94646.91;;;29.30;51.95
8280;BME280;8335;42.646;23.380;2022-08-30T10:59:45;94642.75;;;28.50;53.62
8280;BME280;8335;42.646;23.380;2022-08-30T11:02:54;94643.47;;;28.30;54.89
8280;BME280;8335;42.646;23.380;2022-08-30T11:05:54;94632.50;;;28.05;56.83
8280;BME280;8335;42.646;23.380;2022-08-30T11:08:37;94642.50;;;28.31;56.38
8280;BME280;8335;42.646;23.380;2022-08-30T11:11:14;94636.84;;;27.97;55.74
8280;BME280;8335;42.646;23.380;2022-08-30T11:13:45;94631.81;;;27.81;54.69
8280;BME280;8335;42.646;23.380;2022-08-30T11:16:15;94614.63;;;27.64;53.35
8280;BME280;8335;42.646;23.380;2022-08-30T11:18:47;94629.16;;;27.52;52.02
8280;BME280;8335;42.646;23.380;2022-08-30T11:21:19;94618.53;;;27.83;51.97
8280;BME280;8335;42.646;23.380;2022-08-30T11:24:00;94616.09;;;27.81;50.74
8280;BME280;8335;42.646;23.380;2022-08-30T11:26:53;94619.16;;;27.85;48.17
8280;BME280;8335;42.646;23.380;2022-08-30T11:29:34;94614.13;;;27.68;47.43
8280;BME280;8335;42.646;23.380;2022-08-30T11:35:06;94613.28;;;27.97;49.56
8280;BME280;8335;42.646;23.380;2022-08-30T11:37:39;94616.59;;;28.06;48.62
8280;BME280;8335;42.646;23.380;2022-08-30T11:40:48;94612.09;;;28.15;46.97
8280;BME280;8335;42.646;23.380;2022-08-30T11:43:48;94607.97;;;28.27;47.30
8280;BME280;8335;42.646;23.380;2022-08-30T11:46:17;94604.13;;;28.59;48.10
8280;BME280;8335;42.646;23.380;2022-08-30T11:48:50;94597.81;;;28.75;48.36
8280;BME280;8335;42.646;23.380;2022-08-30T11:51:39;94604.25;;;28.72;47.54
8280;BME280;8335;42.646;23.380;2022-08-30T11:54:33;94609.25;;;28.67;47.78
8280;BME280;8335;42.646;23.380;2022-08-30T11:57:11;94602.59;;;28.71;47.19
8280;BME280;8335;42.646;23.380;2022-08-30T11:59:48;94594.94;;;28.70;48.60
8280;BME280;8335;42.646;23.380;2022-08-30T12:02:46;94584.59;;;28.62;46.27
8280;BME280;8335;42.646;23.380;2022-08-30T12:05:51;94578.41;;;28.48;46.41
8280;BME280;8335;42.646;23.380;2022-08-30T12:14:38;94572.91;;;28.07;47.99
8280;BME280;8335;42.646;23.380;2022-08-30T12:17:12;94566.72;;;28.29;47.25
8280;BME280;8335;42.646;23.380;2022-08-30T12:19:57;94571.25;;;28.57;46.92
8280;BME280;8335;42.646;23.380;2022-08-30T12:22:25;94567.56;;;28.72;46.60
8280;BME280;8335;42.646;23.380;2022-08-30T12:24:55;94559.13;;;28.77;45.03
8280;BME280;8335;42.646;23.380;2022-08-30T12:27:27;94564.84;;;28.59;45.80
8280;BME280;8335;42.646;23.380;2022-08-30T12:29:58;94539.72;;;28.29;46.36
8280;BME280;8335;42.646;23.380;2022-08-30T12:32:26;94542.22;;;28.15;47.42
8280;BME280;8335;42.646;23.380;2022-08-30T12:34:55;94548.63;;;28.13;48.29
8280;BME280;8335;42.646;23.380;2022-08-30T12:37:25;94544.94;;;28.29;48.73
8280;BME280;8335;42.646;23.380;2022-08-30T12:40:02;94542.50;;;28.27;48.12
8280;BME280;8335;42.646;23.380;2022-08-30T12:42:32;94538.78;;;28.15;48.04
8280;BME280;8335;42.646;23.380;2022-08-30T12:45:05;94531.63;;;28.23;47.49
8280;BME280;8335;42.646;23.380;2022-08-30T12:47:44;94538.22;;;28.19;47.55
8280;BME280;8335;42.646;23.380;2022-08-30T12:50:14;94535.66;;;28.05;48.47
8280;BME280;8335;42.646;23.380;2022-08-30T12:52:45;94537.31;;;27.91;48.30
8280;BME280;8335;42.646;23.380;2022-08-30T12:55:17;94534.00;;;27.82;49.18
8280;BME280;8335;42.646;23.380;2022-08-30T12:57:56;94515.16;;;27.28;51.08
8280;BME280;8335;42.646;23.380;2022-08-30T13:00:26;94489.31;;;26.66;52.48
8280;BME280;8335;42.646;23.380;2022-08-30T13:02:56;94537.59;;;26.70;54.40
8280;BME280;8335;42.646;23.380;2022-08-30T13:05:33;94535.72;;;26.41;55.67
8280;BME280;8335;42.646;23.380;2022-08-30T13:08:12;94535.75;;;26.10;57.51
8280;BME280;8335;42.646;23.380;2022-08-30T13:10:56;94542.25;;;25.83;58.98
8280;BME280;8335;42.646;23.380;2022-08-30T13:13:36;94535.94;;;26.00;58.90
8280;BME280;8335;42.646;23.380;2022-08-30T13:16:11;94530.78;;;26.15;56.81
8280;BME280;8335;42.646;23.380;2022-08-30T13:18:38;94517.75;;;25.92;58.06
8280;BME280;8335;42.646;23.380;2022-08-30T13:21:10;94524.50;;;25.78;58.10
8280;BME280;8335;42.646;23.380;2022-08-30T13:23:38;94523.69;;;25.77;58.66
8280;BME280;8335;42.646;23.380;2022-08-30T13:26:05;94521.63;;;25.57;58.09
8280;BME280;8335;42.646;23.380;2022-08-30T13:28:42;94517.22;;;25.65;58.67
8280;BME280;8335;42.646;23.380;2022-08-30T13:31:10;94518.66;;;25.76;58.75
8280;BME280;8335;42.646;23.380;2022-08-30T13:33:37;94512.44;;;25.77;59.47
8280;BME280;8335;42.646;23.380;2022-08-30T13:36:04;94510.09;;;25.90;58.98